Time;durP1;ratioP1;P1;durP2;ratioP2;P2;SDS_P1;SDS_P2;PMS_P1;PMS_P2;Temp;Humidity;BMP_temperature;BMP_pressure;BME280_temperature;BME280_humidity;BME280_pressure;Samples;Min_cycle;Max_cycle;Signal;HPM_P1;HPM_P2
2024/03/25 00:01:22;;;;;;;19.00;2.88;;;;;;;10.07;71.05;100906.91;5051333;28;20121;-45
2024/03/25 00:03:48;;;;;;;16.83;2.88;;;;;;;10.03;70.97;100900.78;5049856;28;20144;-45
2024/03/25 00:06:14;;;;;;;13.32;2.25;;;;;;;9.98;70.52;100893.75;5051135;28;20446;-47
2024/03/25 00:08:39;;;;;;;14.50;2.40;;;;;;;9.94;70.49;100890.19;5050423;28;20585;-45
2024/03/25 00:11:04;;;;;;;15.45;2.42;;;;;;;9.86;70.91;100894.44;5051098;28;20111;-45
2024/03/25 00:13:29;;;;;;;14.75;2.30;;;;;;;9.74;70.87;100894.22;5049677;28;20125;-46
2024/03/25 00:15:55;;;;;;;9.85;2.10;;;;;;;9.61;70.81;100889.66;5051072;28;20415;-45
2024/03/25 00:18:20;;;;;;;14.18;2.65;;;;;;;9.53;71.39;100886.91;5050982;28;20503;-47
2024/03/25 00:20:45;;;;;;;13.25;2.20;;;;;;;9.56;71.25;100884.38;5050670;28;20029;-49
2024/03/25 00:23:11;;;;;;;18.95;2.85;;;;;;;9.48;71.61;100890.28;5050406;28;20119;-45
2024/03/25 00:25:37;;;;;;;16.75;3.25;;;;;;;9.43;71.14;100889.31;5050127;28;20041;-44
2024/03/25 00:28:02;;;;;;;13.32;2.55;;;;;;;9.26;71.50;100889.03;5050855;28;20029;-46
2024/03/25 00:30:27;;;;;;;12.77;2.40;;;;;;;9.34;71.69;100897.81;5050474;28;20043;-45
2024/03/25 00:32:53;;;;;;;10.13;2.60;;;;;;;9.32;71.67;100899.53;5050223;28;20025;-45
2024/03/25 00:35:18;;;;;;;16.83;2.28;;;;;;;9.30;71.88;100901.22;5050950;28;20078;-45
2024/03/25 00:37:45;;;;;;;16.25;3.03;;;;;;;9.29;71.89;100897.75;5050370;28;20036;-44
2024/03/25 00:40:11;;;;;;;13.45;2.20;;;;;;;9.26;72.20;100899.41;5050698;28;20086;-46
2024/03/25 00:42:37;;;;;;;18.70;2.20;;;;;;;9.20;72.47;100901.91;5049904;28;20533;-45
2024/03/25 00:45:02;;;;;;;15.50;2.33;;;;;;;9.23;72.27;100904.56;5050803;28;20025;-43
2024/03/25 00:47:27;;;;;;;13.00;2.42;;;;;;;9.19;72.41;100905.34;5049938;28;20091;-43
2024/03/25 00:49:53;;;;;;;14.02;2.63;;;;;;;9.09;72.48;100906.88;5051412;28;20033;-43
2024/03/25 00:52:18;;;;;;;17.30;2.70;;;;;;;9.14;72.44;100901.78;5051643;28;20033;-45
2024/03/25 00:54:43;;;;;;;13.45;2.22;;;;;;;9.14;72.38;100907.00;5050525;28;20055;-45
2024/03/25 00:57:09;;;;;;;15.60;2.45;;;;;;;9.05;72.82;100905.06;5050593;28;20029;-44
2024/03/25 00:59:35;;;;;;;16.25;2.45;;;;;;;9.09;72.47;100901.66;5051564;28;20116;-44
2024/03/25 01:02:00;;;;;;;10.43;2.40;;;;;;;9.09;72.48;100900.81;5052029;28;20115;-43
2024/03/25 01:04:25;;;;;;;9.65;2.05;;;;;;;9.06;72.49;100903.34;5050715;28;20045;-44
2024/03/25 01:06:51;;;;;;;16.00;2.67;;;;;;;9.04;72.97;100908.50;5050200;28;20522;-45
2024/03/25 01:09:16;;;;;;;24.05;2.75;;;;;;;9.04;74.29;100908.50;5050390;28;20040;-46
2024/03/25 01:11:41;;;;;;;18.65;2.75;;;;;;;9.01;74.66;100916.28;5048398;28;20384;-43
2024/03/25 01:14:07;;;;;;;13.93;2.70;;;;;;;9.05;76.02;100915.47;5051320;28;20072;-45
2024/03/25 01:16:33;;;;;;;18.52;2.88;;;;;;;9.03;75.17;100918.88;5052056;28;20059;-44
2024/03/25 01:18:58;;;;;;;20.20;2.63;;;;;;;9.07;74.06;100920.72;5052192;28;20467;-44
2024/03/25 01:21:24;;;;;;;17.50;2.58;;;;;;;9.02;73.67;100924.94;5050472;28;20032;-46
2024/03/25 01:23:49;;;;;;;17.48;2.95;;;;;;;8.98;73.69;100924.00;5048582;28;20045;-43
2024/03/25 01:26:15;;;;;;;14.27;2.50;;;;;;;8.96;73.86;100925.72;5049961;28;20035;-46
2024/03/25 01:28:40;;;;;;;15.48;2.67;;;;;;;8.96;73.80;100913.56;5049841;28;20045;-49
2024/03/25 01:31:05;;;;;;;15.32;2.40;;;;;;;8.99;74.02;100915.34;5051282;28;20029;-45
2024/03/25 01:33:31;;;;;;;15.45;2.88;;;;;;;9.04;74.45;100905.91;5049956;28;20049;-45
2024/03/25 01:35:56;;;;;;;11.55;2.10;;;;;;;9.06;74.27;100911.16;5051033;28;20044;-43
2024/03/25 01:38:22;;;;;;;11.32;1.98;;;;;;;9.05;74.14;100909.41;5051504;28;20052;-46
2024/03/25 01:40:47;;;;;;;20.70;2.70;;;;;;;8.93;74.62;100910.91;5050233;28;20033;-44
2024/03/25 01:43:13;;;;;;;16.15;2.58;;;;;;;8.89;74.62;100905.63;5051672;28;20079;-44
2024/03/25 01:45:38;;;;;;;13.93;2.78;;;;;;;8.88;75.17;100911.66;5049877;28;20091;-45
2024/03/25 01:48:09;;;;;;;11.40;2.15;;;;;;;8.87;74.72;100902.09;5050207;28;20120;-46
2024/03/25 01:50:37;;;;;;;10.07;2.30;;;;;;;8.83;74.82;100906.38;5049214;28;20037;-44
2024/03/25 01:53:03;;;;;;;12.35;2.38;;;;;;;8.78;74.71;100905.38;5049501;28;20029;-45
2024/03/25 01:55:30;;;;;;;15.68;2.85;;;;;;;8.77;74.70;100905.38;5048990;28;20175;-44
2024/03/25 01:57:56;;;;;;;13.48;2.05;;;;;;;8.73;74.33;100907.00;5049826;28;20052;-46
2024/03/25 02:00:24;;;;;;;16.08;2.25;;;;;;;8.69;74.40;100913.00;5049725;28;20043;-46
2024/03/25 02:02:51;;;;;;;11.93;1.77;;;;;;;8.70;74.68;100914.75;5049121;28;20099;-44
2024/03/25 02:05:18;;;;;;;17.83;2.92;;;;;;;8.73;74.71;100917.41;5049501;28;20039;-44
2024/03/25 02:07:44;;;;;;;11.93;2.40;;;;;;;8.77;75.46;100915.75;5049454;28;20040;-44
2024/03/25 02:10:10;;;;;;;11.15;2.45;;;;;;;8.81;75.20;100909.78;5049963;28;20025;-46
2024/03/25 02:12:37;;;;;;;11.07;1.95;;;;;;;8.80;75.19;100915.81;5049343;28;20423;-45
2024/03/25 02:15:04;;;;;;;9.05;1.85;;;;;;;8.79;75.11;100906.25;5051086;28;20029;-45
2024/03/25 02:17:29;;;;;;;13.57;2.20;;;;;;;8.79;74.94;100907.13;5052193;28;20040;-45
2024/03/25 02:19:55;;;;;;;8.55;2.10;;;;;;;8.78;74.89;100905.38;5051485;28;20159;-46
2024/03/25 02:22:20;;;;;;;17.92;2.53;;;;;;;8.80;75.33;100895.00;5049852;28;20049;-44
2024/03/25 02:24:47;;;;;;;17.85;2.58;;;;;;;8.76;75.03;100888.00;5051007;28;20083;-44
2024/03/25 02:27:14;;;;;;;12.88;2.72;;;;;;;8.71;75.21;100887.03;5052658;28;20682;-43
2024/03/25 02:29:41;;;;;;;16.55;2.60;;;;;;;8.68;74.94;100881.75;5051092;28;20029;-44
2024/03/25 02:32:10;;;;;;;16.58;2.63;;;;;;;8.59;74.89;100879.88;5048880;28;20029;-42
2024/03/25 02:34:44;;;;;;;15.15;2.50;;;;;;;8.53;74.24;100875.41;5049002;28;20051;-45
2024/03/25 02:37:10;;;;;;;8.45;1.90;;;;;;;8.48;74.44;100876.13;5051199;28;20159;-43
2024/03/25 02:39:35;;;;;;;10.98;2.10;;;;;;;8.46;74.11;100878.72;5052868;28;20526;-44
2024/03/25 02:42:01;;;;;;;10.70;2.22;;;;;;;8.44;74.54;100867.41;5054671;28;20033;-46
2024/03/25 02:44:27;;;;;;;10.18;2.40;;;;;;;8.45;74.94;100871.75;5053770;28;20128;-47
2024/03/25 02:46:52;;;;;;;13.70;2.55;;;;;;;8.45;75.21;100868.28;5053529;28;20045;-45
2024/03/25 02:49:18;;;;;;;19.13;2.35;;;;;;;8.47;74.62;100867.50;5053442;28;20025;-46
2024/03/25 02:51:43;;;;;;;13.45;2.20;;;;;;;8.50;74.62;100866.66;5053276;28;20044;-44
2024/03/25 02:54:08;;;;;;;9.45;2.25;;;;;;;8.47;74.77;100866.59;5052357;28;20033;-43
2024/03/25 02:56:37;;;;;;;12.60;2.30;;;;;;;8.51;74.90;100860.63;5053024;28;20041;-46
2024/03/25 02:59:02;;;;;;;13.75;2.40;;;;;;;8.53;74.98;100862.44;5053827;28;20036;-44
2024/03/25 03:01:27;;;;;;;15.05;2.50;;;;;;;8.59;75.48;100866.00;5053126;28;20040;-44
2024/03/25 03:03:53;;;;;;;23.95;2.50;;;;;;;8.64;75.67;100857.44;5053285;28;20452;-45
2024/03/25 03:06:18;;;;;;;18.48;2.78;;;;;;;8.64;76.12;100856.56;5053185;28;20044;-44
2024/03/25 03:08:44;;;;;;;16.73;2.60;;;;;;;8.66;75.68;100850.53;5052947;28;20106;-45
2024/03/25 03:11:09;;;;;;;12.75;2.53;;;;;;;8.62;75.97;100851.31;5053558;28;20553;-45
2024/03/25 03:13:34;;;;;;;12.95;2.45;;;;;;;8.64;75.59;100847.06;5052706;28;20033;-45
2024/03/25 03:16:00;;;;;;;12.48;2.28;;;;;;;8.65;75.34;100848.81;5053641;28;20040;-47
2024/03/25 03:18:25;;;;;;;15.30;2.38;;;;;;;8.62;75.18;100853.94;5053355;28;20069;-44
2024/03/25 03:20:50;;;;;;;11.07;2.17;;;;;;;8.57;75.10;100858.16;5053197;28;20099;-44
2024/03/25 03:23:15;;;;;;;16.45;2.63;;;;;;;8.50;75.27;100846.75;5053257;28;20033;-43
2024/03/25 03:25:41;;;;;;;12.40;2.92;;;;;;;8.49;75.02;100849.31;5052596;28;20037;-44
2024/03/25 03:28:06;;;;;;;13.10;2.60;;;;;;;8.48;74.92;100850.16;5053395;28;20029;-43
2024/03/25 03:30:31;;;;;;;15.90;2.38;;;;;;;8.47;74.78;100849.31;5052745;28;20029;-45
2024/03/25 03:32:57;;;;;;;12.38;2.50;;;;;;;8.42;75.63;100847.41;5053294;28;20133;-45
2024/03/25 03:35:22;;;;;;;20.80;2.90;;;;;;;8.45;75.24;100843.19;5052386;28;20388;-46
2024/03/25 03:37:47;;;;;;;18.02;2.65;;;;;;;8.42;75.44;100844.81;5052967;28;20391;-45
2024/03/25 03:40:14;;;;;;;19.15;3.08;;;;;;;8.42;75.26;100839.63;5051709;28;20037;-45
2024/03/25 03:42:39;;;;;;;16.08;2.88;;;;;;;8.41;75.72;100843.09;5051289;28;20495;-44
2024/03/25 03:45:05;;;;;;;17.65;3.05;;;;;;;8.35;75.79;100842.97;5050359;28;20078;-43
2024/03/25 03:47:30;;;;;;;18.67;2.75;;;;;;;8.39;75.68;100837.88;5051400;28;20029;-43
2024/03/25 03:49:57;;;;;;;17.80;3.05;;;;;;;8.40;75.74;100837.03;5053934;28;20419;-44
2024/03/25 03:52:22;;;;;;;16.67;2.60;;;;;;;8.41;75.71;100835.31;5053795;28;20040;-46
2024/03/25 03:54:47;;;;;;;12.45;3.05;;;;;;;8.40;75.89;100837.03;5051863;28;20699;-45
2024/03/25 03:57:13;;;;;;;12.98;2.90;;;;;;;8.40;75.82;100839.63;5052095;28;20037;-44
2024/03/25 03:59:38;;;;;;;16.55;2.85;;;;;;;8.38;76.17;100841.28;5051393;28;20442;-44
2024/03/25 04:02:03;;;;;;;18.05;3.17;;;;;;;8.36;76.65;100834.31;5051767;28;20064;-45
2024/03/25 04:04:29;;;;;;;19.33;3.13;;;;;;;8.38;76.35;100833.50;5050497;28;20795;-45
2024/03/25 04:06:54;;;;;;;13.32;2.78;;;;;;;8.42;76.22;100839.63;5051345;28;20491;-44
2024/03/25 04:09:20;;;;;;;14.75;3.08;;;;;;;8.44;75.68;100832.75;5050276;28;20033;-43
2024/03/25 04:11:45;;;;;;;14.52;2.88;;;;;;;8.42;75.94;100832.72;5051058;28;20048;-44
2024/03/25 04:14:10;;;;;;;12.93;3.33;;;;;;;8.38;75.65;100838.69;5051143;28;20037;-45
2024/03/25 04:16:36;;;;;;;13.93;2.83;;;;;;;8.30;75.04;100827.25;5050770;28;20086;-45
2024/03/25 04:19:01;;;;;;;12.57;3.10;;;;;;;8.20;75.26;100830.47;5051713;28;20443;-45
2024/03/25 04:21:26;;;;;;;12.00;2.67;;;;;;;8.15;75.27;100834.69;5048992;28;20039;-45
2024/03/25 04:23:52;;;;;;;14.18;3.25;;;;;;;8.12;75.11;100834.59;5050619;28;20087;-44
2024/03/25 04:26:18;;;;;;;10.10;3.05;;;;;;;8.08;74.74;100833.66;5051641;28;20032;-44
2024/03/25 04:28:43;;;;;;;16.27;3.15;;;;;;;8.06;75.14;100832.75;5050971;28;20048;-45
2024/03/25 04:31:08;;;;;;;15.10;3.03;;;;;;;8.03;75.35;100830.09;5052957;28;20032;-46
2024/03/25 04:33:34;;;;;;;16.35;3.60;;;;;;;8.02;75.42;100830.94;5051682;28;20044;-44
2024/03/25 04:36:00;;;;;;;14.23;3.00;;;;;;;8.01;75.15;100833.50;5052164;28;20033;-44
2024/03/25 04:38:25;;;;;;;15.38;3.75;;;;;;;7.98;75.23;100830.84;5051809;28;20036;-44
2024/03/25 04:40:51;;;;;;;15.25;3.28;;;;;;;7.92;75.34;100828.09;5052386;28;20029;-46
2024/03/25 04:43:16;;;;;;;15.23;3.30;;;;;;;7.92;75.49;100828.09;5052108;28;20056;-44
2024/03/25 04:45:42;;;;;;;14.68;3.03;;;;;;;7.87;75.24;100834.91;5051867;28;20033;-45
2024/03/25 04:48:10;;;;;;;12.68;3.55;;;;;;;7.87;75.56;100834.91;5052570;28;20032;-43
2024/03/25 04:50:35;;;;;;;13.60;3.78;;;;;;;7.84;75.54;100834.81;5052037;28;20128;-44
2024/03/25 04:53:01;;;;;;;16.73;3.63;;;;;;;7.84;75.30;100843.50;5052070;28;20069;-45
2024/03/25 04:55:26;;;;;;;14.77;3.60;;;;;;;7.81;75.36;100840.81;5052785;28;20041;-45
2024/03/25 04:57:52;;;;;;;12.48;4.05;;;;;;;7.80;75.07;100835.59;5052844;28;20521;-44
2024/03/25 05:00:18;;;;;;;13.15;3.40;;;;;;;7.77;74.99;100835.50;5055466;28;20029;-46
2024/03/25 05:02:43;;;;;;;16.25;3.50;;;;;;;7.71;74.65;100841.44;5054505;28;20033;-44
2024/03/25 05:05:09;;;;;;;9.30;3.17;;;;;;;7.67;74.90;100826.66;5054373;28;20442;-41
2024/03/25 05:07:35;;;;;;;11.63;3.80;;;;;;;7.65;75.01;100838.69;5051987;28;20036;-45
2024/03/25 05:10:00;;;;;;;8.77;3.35;;;;;;;7.63;75.02;100843.84;5051777;28;20460;-44
2024/03/25 05:12:29;;;;;;;14.15;3.58;;;;;;;7.62;75.04;100834.28;5050222;28;20037;-43
2024/03/25 05:14:55;;;;;;;9.23;3.33;;;;;;;7.59;75.14;100842.00;5051460;28;20082;-45
2024/03/25 05:17:20;;;;;;;12.35;3.20;;;;;;;7.55;75.07;100842.78;5052108;28;20048;-43
2024/03/25 05:19:46;;;;;;;13.07;3.65;;;;;;;7.55;75.08;100834.13;5055870;28;20033;-44
2024/03/25 05:22:11;;;;;;;10.35;2.97;;;;;;;7.54;75.28;100835.84;5051849;28;20515;-44
2024/03/25 05:24:36;;;;;;;12.25;3.63;;;;;;;7.55;75.33;100842.78;5049804;28;20120;-43
2024/03/25 05:27:02;;;;;;;10.60;3.50;;;;;;;7.55;75.06;100836.72;5050463;28;20025;-43
2024/03/25 05:29:27;;;;;;;10.73;3.20;;;;;;;7.51;75.22;100830.56;5050005;28;20400;-44
2024/03/25 05:32:00;;;;;;;13.18;3.50;;;;;;;7.47;75.50;100833.94;5050746;28;20064;-46
2024/03/25 05:34:26;;;;;;;10.43;3.60;;;;;;;7.50;75.58;100836.59;5049874;28;20098;-45
2024/03/25 05:36:51;;;;;;;14.43;3.92;;;;;;;7.49;75.71;100828.78;5050262;28;20033;-44
2024/03/25 05:39:17;;;;;;;16.77;4.32;;;;;;;7.49;75.78;100829.66;5050120;28;20034;-44
2024/03/25 05:41:43;;;;;;;15.40;4.22;;;;;;;7.56;75.69;100833.28;5050097;28;20045;-44
2024/03/25 05:44:08;;;;;;;12.38;3.50;;;;;;;7.61;75.69;100832.56;5051611;28;20128;-43
2024/03/25 05:46:33;;;;;;;16.10;4.10;;;;;;;7.65;76.06;100821.41;5050175;28;20169;-44
2024/03/25 05:49:03;;;;;;;21.02;4.88;;;;;;;7.72;76.43;100825.03;5050960;28;20106;-45
2024/03/25 05:51:35;;;;;;;20.70;4.60;;;;;;;7.82;77.00;100820.91;5050173;28;20036;-44
2024/03/25 05:54:00;;;;;;;18.27;4.60;;;;;;;7.91;76.63;100827.22;5050365;28;20029;-44
2024/03/25 05:56:30;;;;;;;18.52;4.60;;;;;;;7.96;76.47;100816.94;5049948;28;20116;-47
2024/03/25 05:58:59;;;;;;;16.60;4.63;;;;;;;8.00;76.47;100816.16;5052605;28;20055;-45
2024/03/25 06:01:25;;;;;;;13.45;4.22;;;;;;;8.03;76.54;100816.25;5052483;28;20061;-44
2024/03/25 06:03:50;;;;;;;16.13;4.57;;;;;;;8.10;76.32;100813.81;5049853;28;20056;-43
2024/03/25 06:06:16;;;;;;;14.30;4.22;;;;;;;8.16;76.42;100820.88;5051768;28;20029;-45
2024/03/25 06:08:41;;;;;;;17.25;4.85;;;;;;;8.14;76.84;100813.03;5050584;28;20044;-45
2024/03/25 06:11:06;;;;;;;18.98;5.20;;;;;;;8.17;77.18;100814.84;5052024;28;20037;-44
2024/03/25 06:13:32;;;;;;;17.17;5.32;;;;;;;8.25;77.18;100814.97;5052201;28;20457;-45
2024/03/25 06:15:58;;;;;;;26.33;5.25;;;;;;;8.40;77.41;100815.38;5054088;28;20033;-46
2024/03/25 06:18:23;;;;;;;21.27;5.43;;;;;;;8.52;77.23;100811.28;5053898;28;20040;-46
2024/03/25 06:20:49;;;;;;;27.48;5.97;;;;;;;8.61;77.04;100817.50;5055316;28;20033;-44
2024/03/25 06:23:28;;;;;;;22.60;5.38;;;;;;;8.69;77.65;100809.03;5055769;28;20060;-43
2024/03/25 06:25:54;;;;;;;23.10;5.57;;;;;;;8.84;77.31;100808.47;5055113;28;20040;-45
2024/03/25 06:28:21;;;;;;;21.58;5.57;;;;;;;8.98;77.24;100798.31;5054260;28;20043;-43
2024/03/25 06:36:16;;;;;;;25.08;5.20;;;;;;;9.51;78.24;100797.53;5054873;28;20036;-46
2024/03/25 06:38:41;;;;;;;33.22;6.55;;;;;;;9.89;78.64;100802.44;5054468;28;20040;-44
2024/03/25 06:41:06;;;;;;;26.33;6.22;;;;;;;10.57;78.75;100790.38;5053527;28;20480;-45
2024/03/25 06:43:32;;;;;;;24.17;6.60;;;;;;;11.53;76.74;100791.34;5052237;28;20056;-43
2024/03/25 06:45:57;;;;;;;29.70;5.70;;;;;;;12.25;72.50;100787.53;5052968;28;20065;-46
2024/03/25 06:48:23;;;;;;;20.95;4.90;;;;;;;12.92;66.18;100788.66;5052810;28;20120;-47
2024/03/25 06:50:55;;;;;;;17.75;4.50;;;;;;;13.72;63.32;100788.72;5051745;28;20053;-43
2024/03/25 06:53:20;;;;;;;18.52;4.25;;;;;;;14.29;59.05;100789.50;5052155;28;20087;-46
2024/03/25 06:55:56;;;;;;;19.40;4.03;;;;;;;14.60;58.16;100785.94;5051795;28;20403;-44
2024/03/25 06:58:23;;;;;;;20.42;4.35;;;;;;;14.95;55.37;100785.72;5052854;28;20427;-44
2024/03/25 07:00:49;;;;;;;14.57;4.68;;;;;;;14.83;52.99;100780.56;5053317;28;20092;-44
2024/03/25 07:03:19;;;;;;;17.83;4.70;;;;;;;14.85;53.38;100783.19;5052955;28;20045;-46
2024/03/25 07:05:46;;;;;;;14.88;4.13;;;;;;;15.53;53.24;100781.88;5053048;28;20128;-46
2024/03/25 07:08:12;;;;;;;19.38;4.68;;;;;;;15.73;50.83;100783.47;5053437;28;20044;-45
2024/03/25 07:10:37;;;;;;;18.17;4.30;;;;;;;15.78;50.20;100781.66;5052687;28;20100;-46
2024/03/25 07:13:03;;;;;;;17.70;4.88;;;;;;;15.73;49.72;100780.81;5052823;28;20052;-46
2024/03/25 07:15:28;;;;;;;17.35;5.18;;;;;;;15.68;50.51;100787.84;5052227;28;20029;-44
2024/03/25 07:17:53;;;;;;;17.42;5.07;;;;;;;15.61;51.24;100783.56;5052493;28;20032;-44
2024/03/25 07:20:19;;;;;;;19.30;4.90;;;;;;;15.51;51.48;100784.47;5051984;28;20047;-45
2024/03/25 07:22:44;;;;;;;16.23;5.10;;;;;;;15.18;53.08;100779.50;5050255;28;20037;-45
2024/03/25 07:25:10;;;;;;;21.30;5.30;;;;;;;14.86;54.75;100779.69;5051404;28;20040;-45
2024/03/25 07:27:35;;;;;;;18.42;4.75;;;;;;;14.85;54.12;100789.31;5051336;28;20395;-45
2024/03/25 07:30:00;;;;;;;21.25;5.57;;;;;;;14.90;54.53;100786.66;5051708;28;20606;-45
2024/03/25 07:32:25;;;;;;;21.77;5.15;;;;;;;15.37;54.33;100783.69;5051330;28;20036;-47
2024/03/25 07:34:51;;;;;;;13.77;4.80;;;;;;;16.62;51.54;100786.88;5051686;28;20051;-45
2024/03/25 07:37:17;;;;;;;17.63;4.70;;;;;;;17.06;47.23;100784.53;5052704;28;20114;-45
2024/03/25 07:39:42;;;;;;;21.80;5.43;;;;;;;16.60;48.23;100780.75;5051880;28;20414;-45
2024/03/25 07:42:07;;;;;;;18.48;4.85;;;;;;;16.68;47.71;100787.69;5051972;28;20040;-44
2024/03/25 07:44:33;;;;;;;14.82;4.90;;;;;;;16.24;49.74;100786.41;5051515;28;20040;-47
2024/03/25 07:46:58;;;;;;;18.25;5.15;;;;;;;15.70;50.82;100790.47;5051388;28;20045;-43
2024/03/25 07:49:23;;;;;;;15.77;5.43;;;;;;;15.00;51.32;100796.22;5053132;28;20040;-44
2024/03/25 07:51:48;;;;;;;17.00;5.85;;;;;;;14.41;55.46;100797.38;5052991;28;20033;-46
2024/03/25 07:54:16;;;;;;;19.55;5.60;;;;;;;14.35;56.46;100794.72;5051093;28;20150;-45
2024/03/25 07:56:42;;;;;;;20.60;6.13;;;;;;;14.07;57.79;100806.19;5051190;28;20045;-44
2024/03/25 07:59:07;;;;;;;16.42;5.90;;;;;;;13.59;58.23;100805.34;5050587;28;20115;-44
2024/03/25 08:01:32;;;;;;;21.10;6.80;;;;;;;13.41;59.63;100807.97;5051047;28;20124;-45
2024/03/25 08:03:58;;;;;;;19.50;6.05;;;;;;;13.29;60.15;100807.97;5051751;28;20561;-45
2024/03/25 08:06:23;;;;;;;16.83;6.50;;;;;;;13.27;60.25;100807.94;5052861;28;20125;-47
2024/03/25 08:08:49;;;;;;;22.05;6.60;;;;;;;13.15;60.96;100814.91;5051837;28;20057;-44
2024/03/25 08:11:14;;;;;;;18.10;7.03;;;;;;;13.10;61.54;100809.63;5051537;28;20033;-44
2024/03/25 08:13:39;;;;;;;19.45;7.35;;;;;;;12.92;62.60;100810.47;5051567;28;20025;-44
2024/03/25 08:16:05;;;;;;;24.17;7.45;;;;;;;13.04;62.88;100809.63;5051944;28;20040;-44
2024/03/25 08:18:30;;;;;;;23.30;7.40;;;;;;;13.06;64.08;100812.22;5051281;28;20029;-45
2024/03/25 08:20:55;;;;;;;22.55;8.00;;;;;;;13.35;63.10;100811.47;5051401;28;20025;-45
2024/03/25 08:23:21;;;;;;;24.33;8.32;;;;;;;13.26;64.36;100814.06;5050478;28;20499;-44
2024/03/25 08:25:46;;;;;;;21.52;8.63;;;;;;;13.29;62.25;100811.47;5050490;28;20033;-45
2024/03/25 08:28:11;;;;;;;25.40;8.50;;;;;;;13.67;62.70;100811.44;5050750;28;20078;-44
2024/03/25 08:30:37;;;;;;;24.00;8.90;;;;;;;13.79;62.58;100814.06;5050160;28;20471;-45
2024/03/25 08:33:02;;;;;;;19.55;8.90;;;;;;;13.62;61.98;100812.31;5051203;28;20028;-45
2024/03/25 08:35:27;;;;;;;22.98;8.88;;;;;;;13.65;61.91;100810.59;5051121;28;20036;-46
2024/03/25 08:37:53;;;;;;;23.00;10.00;;;;;;;13.46;61.70;100800.97;5051818;28;20040;-46
2024/03/25 08:40:18;;;;;;;22.27;9.55;;;;;;;13.35;61.66;100794.88;5052125;28;20037;-48
2024/03/25 08:42:44;;;;;;;23.83;10.63;;;;;;;13.65;61.33;100805.34;5050703;28;20120;-46
2024/03/25 08:45:09;;;;;;;21.10;9.40;;;;;;;13.80;61.36;100792.22;5050798;28;20029;-44
2024/03/25 08:47:34;;;;;;;21.70;10.07;;;;;;;13.79;61.35;100793.09;5050516;28;20109;-45
2024/03/25 08:50:00;;;;;;;21.75;9.90;;;;;;;13.87;61.34;100794.84;5050801;28;20026;-46
2024/03/25 08:52:25;;;;;;;22.08;9.05;;;;;;;13.38;61.43;100789.63;5050877;28;20204;-45
2024/03/25 08:54:50;;;;;;;22.80;9.45;;;;;;;13.43;59.88;100787.00;5049994;28;20029;-46
2024/03/25 08:57:16;;;;;;;20.40;9.52;;;;;;;13.74;60.68;100781.75;5050593;28;20453;-43
2024/03/25 08:59:41;;;;;;;22.58;10.90;;;;;;;13.62;63.16;100778.28;5049799;28;20056;-49
2024/03/25 09:02:07;;;;;;;23.58;10.48;;;;;;;14.10;60.68;100778.19;5050342;28;20423;-44
2024/03/25 09:04:34;;;;;;;18.58;8.82;;;;;;;14.06;61.14;100767.72;5049994;28;20076;-45
2024/03/25 09:06:59;;;;;;;11.27;5.72;;;;;;;13.88;56.66;100766.03;5051006;28;20060;-46
2024/03/25 09:12:09;;;;;;;17.60;7.45;;;;;;;14.56;55.58;100757.09;5050206;28;20040;-43
2024/03/25 09:14:34;;;;;;;11.23;6.15;;;;;;;14.89;54.64;100761.28;5049090;28;20052;-45
2024/03/25 09:16:59;;;;;;;16.38;6.40;;;;;;;14.87;54.74;100761.31;5050283;28;20455;-44
2024/03/25 09:19:25;;;;;;;15.80;6.85;;;;;;;14.96;54.75;100761.22;5050526;28;20041;-46
2024/03/25 09:21:51;;;;;;;15.50;6.85;;;;;;;14.77;54.01;100758.72;5049630;28;20029;-45
2024/03/25 09:24:17;;;;;;;21.25;7.53;;;;;;;14.84;54.32;100756.06;5050067;28;20487;-47
2024/03/25 09:26:43;;;;;;;18.27;8.13;;;;;;;14.98;53.96;100750.72;5049429;28;20098;-45
2024/03/25 09:29:08;;;;;;;17.90;7.30;;;;;;;15.02;53.52;100752.44;5049687;28;20028;-46
2024/03/25 09:31:33;;;;;;;15.90;7.22;;;;;;;15.20;53.79;100738.31;5049360;28;20037;-44
2024/03/25 09:33:59;;;;;;;16.85;8.07;;;;;;;15.39;53.21;100743.41;5050453;28;20037;-43
2024/03/25 09:36:24;;;;;;;16.60;8.00;;;;;;;15.11;53.81;100733.16;5051608;28;20422;-45
2024/03/25 09:38:50;;;;;;;16.30;8.20;;;;;;;15.73;53.06;100737.91;5049500;28;20561;-45
2024/03/25 09:41:16;;;;;;;18.75;8.57;;;;;;;15.96;52.15;100733.28;5049640;28;20040;-44
2024/03/25 09:43:54;;;;;;;21.42;8.40;;;;;;;16.15;51.47;100736.56;5048672;28;20033;-48
2024/03/25 09:46:22;;;;;;;16.20;8.05;;;;;;;15.83;50.13;100732.53;5051720;28;20036;-45
2024/03/25 09:48:47;;;;;;;18.52;9.60;;;;;;;15.17;51.17;100723.47;5053030;28;20045;-46
2024/03/25 09:51:12;;;;;;;19.98;10.52;;;;;;;15.62;52.71;100718.72;5053632;28;20064;-46
2024/03/25 09:53:38;;;;;;;23.42;11.35;;;;;;;15.88;53.19;100726.34;5053054;28;20072;-46
2024/03/25 09:56:04;;;;;;;26.58;13.32;;;;;;;15.45;54.40;100726.72;5052388;28;20056;-45
2024/03/25 09:58:31;;;;;;;23.27;11.57;;;;;;;15.49;54.23;100722.34;5053192;28;20049;-45
2024/03/25 10:00:58;;;;;;;19.35;10.60;;;;;;;15.32;53.71;100722.44;5053786;28;20111;-45
2024/03/25 10:03:23;;;;;;;22.05;11.18;;;;;;;15.61;54.37;100725.75;5053205;28;20037;-46
2024/03/25 10:05:48;;;;;;;20.55;11.00;;;;;;;16.06;53.42;100721.75;5051499;28;20033;-44
2024/03/25 10:08:20;;;;;;;19.85;11.13;;;;;;;15.17;52.60;100717.34;5053575;28;20033;-46
2024/03/25 10:10:45;;;;;;;20.67;10.27;;;;;;;15.49;54.02;100715.28;5054919;28;20029;-43
2024/03/25 10:13:10;;;;;;;23.27;11.70;;;;;;;15.79;53.01;100717.69;5055499;28;20478;-45
2024/03/25 10:15:36;;;;;;;25.25;12.27;;;;;;;16.05;52.36;100722.63;5053059;28;20132;-46
2024/03/25 10:18:01;;;;;;;24.45;11.55;;;;;;;16.08;52.07;100721.75;5053632;28;20526;-46
2024/03/25 10:20:27;;;;;;;20.48;11.30;;;;;;;16.26;50.89;100720.66;5053050;28;20061;-45
2024/03/25 10:22:52;;;;;;;25.35;12.50;;;;;;;15.95;51.43;100723.63;5054415;28;20033;-44
2024/03/25 10:25:30;;;;;;;19.58;10.55;;;;;;;16.09;49.30;100712.97;5055318;28;20171;-43
2024/03/25 10:28:00;;;;;;;22.42;10.85;;;;;;;15.88;49.98;100715.81;5054536;28;20538;-47
2024/03/25 10:30:28;;;;;;;21.45;9.95;;;;;;;15.75;48.51;100709.81;5053369;28;20478;-46
2024/03/25 10:33:04;;;;;;;18.95;10.18;;;;;;;15.91;48.35;100706.16;5055084;28;20033;-45
2024/03/25 10:35:32;;;;;;;18.77;10.45;;;;;;;15.69;49.50;100708.13;5056307;28;20124;-45
2024/03/25 10:38:04;;;;;;;20.75;11.57;;;;;;;15.68;49.04;100697.63;5055839;28;20036;-44
2024/03/25 10:40:32;;;;;;;19.95;10.52;;;;;;;15.71;49.17;100693.22;5054189;28;20048;-44
2024/03/25 10:43:00;;;;;;;16.45;9.82;;;;;;;15.75;49.48;100694.94;5052715;28;20029;-47
2024/03/25 10:45:28;;;;;;;19.40;10.20;;;;;;;15.20;49.22;100693.66;5053356;28;20097;-45
2024/03/25 10:47:57;;;;;;;21.02;9.55;;;;;;;14.54;50.19;100685.38;5054292;28;20029;-45
2024/03/25 10:50:26;;;;;;;18.60;9.65;;;;;;;14.69;50.19;100682.69;5056183;28;20037;-44
2024/03/25 10:52:53;;;;;;;21.30;10.40;;;;;;;14.96;50.07;100685.09;5054769;28;20444;-45
2024/03/25 10:55:21;;;;;;;17.15;8.57;;;;;;;15.22;50.35;100678.78;5052459;28;20037;-45
2024/03/25 10:57:48;;;;;;;14.43;7.68;;;;;;;15.61;46.87;100681.06;5050687;28;20025;-44
2024/03/25 11:00:15;;;;;;;15.43;7.20;;;;;;;15.60;46.04;100671.44;5054907;28;20052;-44
2024/03/25 11:02:43;;;;;;;18.77;7.60;;;;;;;15.68;45.58;100668.72;5052775;28;20442;-43
2024/03/25 11:05:10;;;;;;;14.52;6.95;;;;;;;15.66;44.05;100673.13;5051407;28;20032;-45
2024/03/25 11:07:37;;;;;;;15.45;7.40;;;;;;;16.14;43.70;100655.91;5052162;28;20098;-44
2024/03/25 11:10:05;;;;;;;14.30;7.63;;;;;;;16.18;44.11;100654.97;5052737;28;20037;-46
2024/03/25 11:12:39;;;;;;;14.27;6.65;;;;;;;16.05;43.07;100653.38;5052219;28;20545;-44
2024/03/25 11:15:07;;;;;;;13.43;5.30;;;;;;;16.20;39.70;100656.72;5052130;28;20071;-44
2024/03/25 11:17:33;;;;;;;13.88;6.70;;;;;;;16.20;40.70;100648.81;5051717;28;20041;-45
2024/03/25 11:20:12;;;;;;;10.00;5.93;;;;;;;15.80;39.79;100645.78;5052398;28;20516;-45
2024/03/25 11:22:52;;;;;;;14.75;5.72;;;;;;;15.77;40.47;100640.59;5051573;28;20478;-44
2024/03/25 11:25:20;;;;;;;11.95;6.50;;;;;;;16.23;41.55;100634.75;5051780;28;20462;-46